MGFL/FRS METAR and TAF weather

Enter ICAO airport designator
Station Type Date Time Source
MGFL METAR 2009/05/11 20:00 UTC NOAA

MGFL 112000Z 08016KT 9999 SCT020 BKN090 31/20 Q1013 Q2991


Station Type Date Time Source
MGFL Decoded METAR 2009/05/11 20:00 UTC NOAA

Flores, Guatemala (MGFL) 16-55N 089-53W 115M
May 11, 2009 - 04:00 PM EDT / 2009.05.11 2000 UTC
Wind: from the E (080 degrees) at 18 MPH (16 KT):0
Visibility: greater than 7 mile(s):0
Sky conditions: mostly cloudy
Temperature: 87 F (31 C)
Dew Point: 68 F (20 C)
Relative Humidity: 52%
Pressure (altimeter): 29.91 in. Hg (1013 hPa)
ob: MGFL 112000Z 08016KT 9999 SCT020 BKN090 31/20 Q1013 Q2991
cycle: 20

Station Type Date Time Source
MGFL TAF 2009/05/31 01:25 UTC NOAA

TAF MGFL 310125Z 3106/0106 MGTK 00000KT CAVOK TX38/3120Z TN24/3112Z PROB3 0 3110/3114 8000 SCT012
FM311400 06004KT 9999 FEW018 PROB30 3121/0102 VCTS FEW026CB BKN090
FM010200 00000KT CAVOK


Example: see airport list